Time;durP1;ratioP1;P1;durP2;ratioP2;P2;SDS_P1;SDS_P2;PMS_P1;PMS_P2;Temp;Humidity;BMP_temperature;BMP_pressure;BME280_temperature;BME280_humidity;BME280_pressure;Samples;Min_cycle;Max_cycle;Signal;HPM_P1;HPM_P2
2022/06/17 00:00:51;;;;;;;3.70;1.90;;;;;;;11.91;72.89;98968.70;104770;1274;74676;-23
2022/06/17 00:03:19;;;;;;;3.50;3.20;;;;;;;11.72;72.62;98969.34;104748;1274;61932;-24
2022/06/17 00:05:46;;;;;;;3.30;2.50;;;;;;;11.47;73.19;98966.83;104656;1274;62163;-25
2022/06/17 00:08:19;;;;;;;4.90;2.30;;;;;;;11.22;73.52;98969.11;104593;1274;75506;-26
2022/06/17 00:10:47;;;;;;;3.30;2.40;;;;;;;10.98;74.58;98973.23;104609;1274;75658;-26
2022/06/17 00:13:16;;;;;;;3.40;1.80;;;;;;;10.79;75.42;98968.53;104558;1274;75576;-25
2022/06/17 00:15:45;;;;;;;3.90;1.70;;;;;;;11.20;75.46;98963.69;104588;1274;61833;-26
2022/06/17 00:18:13;;;;;;;3.30;2.00;;;;;;;11.73;74.33;98961.95;104647;1274;63089;-23
2022/06/17 00:20:41;;;;;;;3.30;2.40;;;;;;;11.78;73.62;98960.00;104667;1274;74912;-23
2022/06/17 00:23:34;;;;;;;3.20;2.50;;;;;;;11.61;73.78;98963.65;104704;1274;74960;-23
2022/06/17 00:26:01;;;;;;;3.40;2.30;;;;;;;11.35;74.08;98956.90;104721;1274;75398;-24
2022/06/17 00:28:29;;;;;;;4.60;2.80;;;;;;;11.10;74.70;98959.49;104680;1274;62092;-23
2022/06/17 00:30:56;;;;;;;5.30;1.50;;;;;;;10.89;75.39;98956.57;104684;1274;63071;-25
2022/06/17 00:33:23;;;;;;;3.00;2.00;;;;;;;11.24;75.48;98954.70;104624;1274;76833;-26
2022/06/17 00:35:54;;;;;;;4.60;2.50;;;;;;;11.72;74.31;98947.61;104681;1274;77062;-26
2022/06/17 00:38:24;;;;;;;2.60;2.20;;;;;;;11.77;73.59;98945.95;104458;1274;74936;-26
2022/06/17 00:40:52;;;;;;;5.60;2.30;;;;;;;11.59;73.39;98943.36;104647;1274;63069;-24
2022/06/17 00:43:34;;;;;;;6.30;2.10;;;;;;;11.34;73.68;98946.35;104407;1274;62013;-23
2022/06/17 00:46:39;;;;;;;3.20;2.50;;;;;;;11.06;74.12;98944.94;104607;1274;76590;-25
2022/06/17 00:49:32;;;;;;;4.30;2.50;;;;;;;10.76;74.76;98944.52;104708;1274;76137;-26
2022/06/17 00:52:02;;;;;;;1.50;1.10;;;;;;;10.56;75.73;98945.08;104599;1274;75691;-25
2022/06/17 00:54:43;;;;;;;3.00;1.90;;;;;;;11.16;75.13;98939.89;104735;1274;63003;-23
2022/06/17 00:57:29;;;;;;;5.80;2.80;;;;;;;11.75;73.84;98934.19;104569;1274;63315;-23
2022/06/17 01:00:01;;;;;;;3.90;2.50;;;;;;;11.76;72.63;98935.13;104706;1274;75228;-24
2022/06/17 01:02:31;;;;;;;4.20;2.50;;;;;;;11.54;73.01;98927.13;104568;1274;74537;-23
2022/06/17 01:04:58;;;;;;;7.20;3.20;;;;;;;11.26;73.16;98927.39;104448;1274;75378;-25
2022/06/17 01:07:27;;;;;;;6.30;3.20;;;;;;;10.99;73.95;98925.67;104574;1274;63713;-26
2022/06/17 01:09:57;;;;;;;7.80;3.40;;;;;;;10.73;74.41;98922.30;104389;1274;62015;-26
2022/06/17 01:12:36;;;;;;;10.50;2.40;;;;;;;10.55;75.25;98923.33;104415;1274;76624;-26
2022/06/17 01:15:05;;;;;;;5.40;2.30;;;;;;;11.04;75.36;98919.05;104228;1274;280902;-24
2022/06/17 01:17:38;;;;;;;6.00;2.80;;;;;;;11.53;73.76;98921.27;104597;1274;73379;-23
2022/06/17 01:20:07;;;;;;;4.30;2.80;;;;;;;11.55;73.20;98917.99;104566;1273;62061;-23
2022/06/17 01:22:35;;;;;;;10.80;2.90;;;;;;;11.35;73.10;98926.45;104435;1274;63075;-25
2022/06/17 01:25:08;;;;;;;11.20;3.30;;;;;;;11.10;73.22;98924.73;104631;1274;76693;-26
2022/06/17 01:27:45;;;;;;;8.50;4.10;;;;;;;10.86;74.04;98925.62;104587;1274;76092;-26
2022/06/17 01:30:17;;;;;;;13.90;4.50;;;;;;;10.59;74.79;98922.64;104502;1274;73290;-25
2022/06/17 01:33:01;;;;;;;11.00;2.50;;;;;;;10.39;75.56;98918.83;104898;1274;64773;-26
2022/06/17 01:35:31;;;;;;;4.10;2.70;;;;;;;10.93;75.64;98919.44;104737;1274;61905;-26
2022/06/17 01:37:58;;;;;;;5.70;3.40;;;;;;;11.45;74.40;98913.94;104496;1274;75523;-23
2022/06/17 01:40:28;;;;;;;6.30;3.50;;;;;;;11.49;73.77;98918.52;104644;1276;76878;-23
2022/06/17 01:43:00;;;;;;;9.90;3.60;;;;;;;11.32;74.02;98919.45;104724;1272;73513;-25
2022/06/17 01:45:29;;;;;;;5.00;3.60;;;;;;;11.09;74.00;98922.09;104613;1274;62831;-24
2022/06/17 01:48:01;;;;;;;4.30;3.50;;;;;;;10.82;74.80;98921.70;104581;1274;62022;-25
2022/06/17 01:50:29;;;;;;;8.80;3.40;;;;;;;10.60;75.26;98922.04;104644;1274;76449;-25
2022/06/17 01:53:00;;;;;;;4.10;1.70;;;;;;;10.43;75.38;98922.18;104691;1274;76789;-25
2022/06/17 01:55:33;;;;;;;4.00;2.10;;;;;;;10.90;75.44;98922.50;104399;1274;75516;-25
2022/06/17 01:58:25;;;;;;;8.30;2.80;;;;;;;11.47;74.18;98920.03;104640;1274;63116;-25
2022/06/17 02:00:52;;;;;;;7.80;2.50;;;;;;;11.53;73.36;98916.59;104723;1274;61803;-25
2022/06/17 02:03:24;;;;;;;7.50;3.10;;;;;;;11.35;73.38;98917.10;104884;1274;76614;-25
2022/06/17 02:05:55;;;;;;;6.10;3.60;;;;;;;11.12;73.87;98916.84;104848;1274;77193;-25
2022/06/17 02:08:22;;;;;;;7.50;3.60;;;;;;;10.88;74.01;98916.23;104618;1274;74348;-25
2022/06/17 02:10:51;;;;;;;14.80;4.40;;;;;;;10.64;74.68;98914.73;104614;1274;61758;-25
2022/06/17 02:13:19;;;;;;;6.30;1.90;;;;;;;10.47;75.33;98913.05;104652;1271;63066;-25
2022/06/17 02:16:05;;;;;;;5.00;1.80;;;;;;;11.03;75.26;98907.54;104693;1274;75543;-24
2022/06/17 02:19:05;;;;;;;7.80;2.80;;;;;;;11.58;73.24;98905.86;104136;1274;76972;-25
2022/06/17 02:21:48;;;;;;;4.50;2.80;;;;;;;11.59;72.51;98909.45;104725;1274;74312;-25
2022/06/17 02:24:15;;;;;;;4.90;2.70;;;;;;;11.39;72.72;98908.22;104662;1274;61086;-25
2022/06/17 02:26:42;;;;;;;11.00;3.30;;;;;;;11.19;72.94;98912.89;104623;1274;61994;-25
2022/06/17 02:29:10;;;;;;;5.60;3.30;;;;;;;10.98;73.15;98914.48;104574;1274;76539;-25
2022/06/17 02:31:39;;;;;;;4.70;2.70;;;;;;;10.79;73.42;98913.09;104668;1274;76601;-25
2022/06/17 02:34:07;;;;;;;3.00;1.60;;;;;;;10.67;74.21;98910.33;104628;1271;74464;-25
2022/06/17 02:36:41;;;;;;;5.00;1.70;;;;;;;11.15;73.78;98904.66;104919;1274;63070;-25
2022/06/17 02:39:11;;;;;;;4.70;2.90;;;;;;;11.77;72.13;98908.20;104687;1274;62748;-25
2022/06/17 02:42:35;;;;;;;4.30;2.40;;;;;;;11.92;71.29;98906.23;101847;1309;601123;-23
2022/06/17 02:45:14;;;;;;;5.50;2.80;;;;;;;11.75;71.50;98905.80;103900;1284;62040;-23
2022/06/17 02:47:41;;;;;;;5.70;3.10;;;;;;;11.53;71.81;98897.42;103865;1284;61618;-24
2022/06/17 02:50:24;;;;;;;7.40;3.20;;;;;;;11.34;72.32;98898.73;104199;1284;73854;-23
2022/06/17 02:52:52;;;;;;;6.50;3.40;;;;;;;11.15;72.81;98895.52;103946;1286;75899;-23
2022/06/17 02:55:40;;;;;;;9.10;2.10;;;;;;;11.02;73.34;98894.23;103901;1285;298161;-26
2022/06/17 02:58:11;;;;;;;6.50;2.50;;;;;;;11.58;73.32;98892.44;104106;1281;61748;-26
2022/06/17 03:00:38;;;;;;;5.30;2.80;;;;;;;12.09;71.69;98899.15;103755;1281;62957;-25
2022/06/17 03:03:06;;;;;;;3.10;2.60;;;;;;;12.14;71.32;98898.33;104106;1284;73907;-26
2022/06/17 03:05:36;;;;;;;3.20;2.80;;;;;;;12.03;71.38;98897.54;103846;1286;75935;-25
2022/06/17 03:08:14;;;;;;;4.00;3.10;;;;;;;11.95;71.39;98902.06;103842;1285;74480;-25
2022/06/17 03:10:41;;;;;;;4.10;3.20;;;;;;;11.87;71.28;98901.27;103941;1284;61831;-26
2022/06/17 03:13:13;;;;;;;4.60;3.20;;;;;;;11.71;71.46;98901.45;103950;1281;61886;-25
2022/06/17 03:15:42;;;;;;;3.60;2.10;;;;;;;11.55;71.70;98896.94;104280;1284;74717;-26
2022/06/17 03:18:10;;;;;;;3.60;1.80;;;;;;;11.98;72.42;98898.73;104332;1281;75961;-23
2022/06/17 03:20:37;;;;;;;3.80;2.20;;;;;;;12.56;70.57;98903.31;104269;1281;74139;-23
2022/06/17 03:23:10;;;;;;;6.90;2.80;;;;;;;12.69;69.93;98901.70;104363;1281;62939;-24
2022/06/17 03:26:08;;;;;;;7.70;2.70;;;;;;;12.59;69.63;98902.84;103977;1283;62071;-23
2022/06/17 03:28:39;;;;;;;4.60;3.00;;;;;;;12.38;70.07;98906.95;104232;1283;75827;-23
2022/06/17 03:31:07;;;;;;;5.50;3.10;;;;;;;12.22;70.25;98904.77;104067;1284;75597;-23
2022/06/17 03:33:46;;;;;;;5.10;3.30;;;;;;;12.06;70.76;98903.27;103962;1281;75299;-25
2022/06/17 03:36:32;;;;;;;4.40;3.70;;;;;;;11.95;71.00;98902.31;104406;1281;62822;-24
2022/06/17 03:39:02;;;;;;;5.20;2.30;;;;;;;11.93;71.62;98908.21;104108;1285;62053;-25
2022/06/17 03:41:33;;;;;;;6.70;2.10;;;;;;;12.65;71.86;98909.27;103878;1286;75592;-25
2022/06/17 03:44:08;;;;;;;5.10;2.50;;;;;;;13.53;68.90;98903.27;103969;1281;76217;-26
2022/06/17 03:47:06;;;;;;;5.60;3.00;;;;;;;14.16;67.09;98896.91;104115;1281;75191;-25
2022/06/17 03:49:44;;;;;;;11.70;3.60;;;;;;;14.47;66.28;98901.59;103936;1281;63090;-23
2022/06/17 03:52:35;;;;;;;9.20;3.30;;;;;;;14.58;66.35;98897.95;103740;1286;62082;-26
2022/06/17 03:55:13;;;;;;;9.30;3.10;;;;;;;14.74;65.90;98897.67;103726;1284;74642;-25
2022/06/17 03:57:42;;;;;;;6.40;3.90;;;;;;;14.85;65.56;98896.36;103803;1287;75927;-25
2022/06/17 04:00:20;;;;;;;8.80;3.90;;;;;;;14.96;66.01;98896.48;104001;1286;75226;-25
2022/06/17 04:02:48;;;;;;;10.80;3.30;;;;;;;15.12;65.79;98897.54;103995;1286;63369;-25
2022/06/17 04:05:16;;;;;;;8.30;2.50;;;;;;;15.23;65.93;98897.78;104098;1286;62809;-23
2022/06/17 04:07:43;;;;;;;8.40;2.70;;;;;;;15.84;64.77;98897.05;103864;1285;75632;-24
2022/06/17 04:10:13;;;;;;;13.10;2.80;;;;;;;16.59;62.45;98895.52;103809;1286;77088;-23
2022/06/17 04:12:47;;;;;;;;;;;;;;;17.04;61.38;98889.94;103855;1284;74842;-23
2022/06/17 04:15:42;;;;;;;15.80;3.60;;;;;;;17.16;60.44;98884.65;103814;1284;63083;-23
2022/06/17 04:18:09;;;;;;;17.80;3.70;;;;;;;17.08;60.82;98882.86;103912;1285;63094;-23
2022/06/17 04:20:49;;;;;;;13.50;3.20;;;;;;;16.96;61.32;98881.68;104217;1284;75846;-23
2022/06/17 04:23:29;;;;;;;19.30;3.10;;;;;;;16.94;60.92;98881.93;103922;1284;77032;-23
2022/06/17 04:26:30;;;;;;;8.60;3.00;;;;;;;17.04;60.70;98875.73;103824;1283;75400;-23
2022/06/17 04:29:02;;;;;;;8.60;2.90;;;;;;;17.16;59.93;98874.24;104304;1284;63104;-23
2022/06/17 04:31:32;;;;;;;12.30;3.70;;;;;;;17.36;60.13;98872.39;104129;1283;61766;-23
2022/06/17 04:34:15;;;;;;;4.30;2.80;;;;;;;17.55;60.06;98867.59;104423;1284;75965;-24
2022/06/17 04:36:48;;;;;;;7.50;2.70;;;;;;;17.72;59.14;98865.86;104295;1284;77027;-23
2022/06/17 04:39:29;;;;;;;5.30;2.70;;;;;;;17.81;58.58;98864.36;103951;1283;74119;-23
2022/06/17 04:42:33;;;;;;;6.70;3.00;;;;;;;17.79;59.19;98861.90;104226;1284;63372;-23
2022/06/17 04:45:01;;;;;;;4.80;3.20;;;;;;;17.84;59.35;98862.79;104041;1283;62977;-23
2022/06/17 04:47:29;;;;;;;6.50;3.50;;;;;;;17.94;59.15;98859.48;103753;1285;75973;-23
2022/06/17 04:50:05;;;;;;;5.40;3.50;;;;;;;17.97;59.15;98853.70;104062;1285;77159;-23
2022/06/17 04:52:41;;;;;;;5.50;3.60;;;;;;;18.03;59.54;98852.10;103928;1281;75725;-23
2022/06/17 04:55:28;;;;;;;7.30;3.20;;;;;;;17.93;59.54;98846.24;103709;1284;61329;-23
2022/06/17 04:58:11;;;;;;;6.20;3.40;;;;;;;17.80;60.05;98851.79;103781;1284;62782;-23
2022/06/17 05:00:43;;;;;;;12.40;3.10;;;;;;;17.61;59.94;98851.79;103970;1285;75767;-23
2022/06/17 05:03:11;;;;;;;4.00;2.90;;;;;;;17.40;60.42;98852.89;104222;1284;77449;-23
2022/06/17 05:06:04;;;;;;;;;;;;;;;17.29;60.13;98854.80;104395;1283;75435;-22
2022/06/17 05:08:34;;;;;;;7.10;3.40;;;;;;;17.21;59.75;98854.46;104454;1283;61806;-23
2022/06/17 05:11:26;;;;;;;4.70;3.20;;;;;;;17.18;61.27;98853.55;103939;1284;62919;-23
2022/06/17 05:13:57;;;;;;;4.70;3.50;;;;;;;17.22;61.70;98853.30;103756;1286;75818;-23
2022/06/17 05:16:25;;;;;;;5.40;3.60;;;;;;;17.22;62.41;98857.92;103806;1284;75907;-23
2022/06/17 05:18:53;;;;;;;6.00;3.90;;;;;;;17.27;61.98;98856.21;104211;1286;75490;-23
2022/06/17 05:21:22;;;;;;;6.90;3.40;;;;;;;17.28;62.03;98855.59;103995;1286;61782;-23
2022/06/17 05:24:10;;;;;;;7.50;3.00;;;;;;;17.25;61.29;98858.73;103836;1283;61044;-23
2022/06/17 05:26:37;;;;;;;7.20;3.40;;;;;;;17.14;62.51;98861.49;104039;1287;75835;-23
2022/06/17 05:29:08;;;;;;;5.10;3.20;;;;;;;17.03;62.16;98862.52;104357;1284;77165;-23
2022/06/17 05:31:41;;;;;;;11.40;3.00;;;;;;;17.02;61.67;98863.02;104178;1284;75686;-23
2022/06/17 05:34:10;;;;;;;10.80;3.30;;;;;;;17.04;62.69;98862.95;104223;1285;63193;-23
2022/06/17 05:36:38;;;;;;;8.50;2.90;;;;;;;17.06;61.26;98864.16;103942;1283;61643;-24
2022/06/17 05:39:06;;;;;;;4.20;2.20;;;;;;;17.18;61.40;98860.07;104291;1283;74892;-25
2022/06/17 05:41:34;;;;;;;7.50;2.60;;;;;;;17.21;60.70;98861.55;104722;1274;76996;-25
2022/06/17 05:44:02;;;;;;;8.80;2.70;;;;;;;17.33;60.44;98865.20;104398;1276;74139;-25
2022/06/17 05:46:50;;;;;;;6.50;2.20;;;;;;;17.47;59.86;98865.84;104620;1276;62870;-26
2022/06/17 05:49:34;;;;;;;5.20;2.00;;;;;;;17.46;59.09;98865.33;104694;1274;63022;-23
2022/06/17 05:52:31;;;;;;;6.60;2.80;;;;;;;17.56;60.12;98868.98;104668;1273;75765;-23
2022/06/17 05:55:15;;;;;;;;;;;;;;;17.62;60.25;98871.24;104729;1274;75972;-24
2022/06/17 05:57:42;;;;;;;4.90;2.50;;;;;;;17.60;60.69;98874.81;104735;1276;74558;-24
2022/06/17 06:00:10;;;;;;;6.50;3.30;;;;;;;17.56;61.45;98877.76;104726;1274;61807;-25
2022/06/17 06:02:41;;;;;;;4.90;2.80;;;;;;;17.59;61.84;98877.05;104588;1274;63250;-23
2022/06/17 06:05:22;;;;;;;4.90;2.60;;;;;;;17.56;62.43;98878.59;104552;1274;75695;-23
2022/06/17 06:07:51;;;;;;;5.70;3.00;;;;;;;17.48;63.62;98885.11;104605;1273;76170;-23
2022/06/17 06:10:19;;;;;;;4.50;2.90;;;;;;;17.39;63.66;98889.66;104795;1274;75410;-23
2022/06/17 06:13:05;;;;;;;6.50;3.70;;;;;;;17.26;63.22;98888.63;104744;1274;63093;-23
2022/06/17 06:15:40;;;;;;;5.80;3.50;;;;;;;17.06;63.15;98887.80;104726;1273;63065;-23
2022/06/17 06:18:31;;;;;;;3.10;2.50;;;;;;;16.98;64.17;98892.89;104554;1274;74647;-23
2022/06/17 06:21:04;;;;;;;7.10;3.00;;;;;;;16.95;63.17;98892.86;104692;1274;76098;-23
2022/06/17 06:23:34;;;;;;;;;;;;;;;16.95;63.61;98894.27;104739;1275;75449;-23
2022/06/17 06:26:02;;;;;;;7.70;3.00;;;;;;;16.96;64.20;98894.52;104577;1277;62085;-23
2022/06/17 06:28:29;;;;;;;6.40;3.20;;;;;;;16.93;64.79;98898.80;104397;1274;63247;-24
2022/06/17 06:31:22;;;;;;;4.60;2.50;;;;;;;16.91;64.76;98900.46;104562;1273;73828;-23
2022/06/17 06:33:50;;;;;;;5.30;2.60;;;;;;;17.58;64.60;98902.79;104389;1277;77020;-23
2022/06/17 06:36:18;;;;;;;8.30;2.30;;;;;;;18.00;63.22;98901.56;104355;1274;73569;-23
2022/06/17 06:38:45;;;;;;;4.60;2.30;;;;;;;18.05;61.52;98901.14;104453;1275;61832;-23
2022/06/17 06:41:13;;;;;;;6.70;2.70;;;;;;;18.03;60.34;98900.74;104524;1275;63120;-23
2022/06/17 06:43:40;;;;;;;4.70;2.20;;;;;;;17.89;60.92;98898.16;104504;1275;74561;-23
2022/06/17 06:46:37;;;;;;;4.80;2.50;;;;;;;17.81;59.22;98899.08;103869;1275;75612;-24
2022/06/17 06:49:04;;;;;;;2.90;2.00;;;;;;;17.82;60.31;98898.22;104613;1275;73331;-23
2022/06/17 06:51:32;;;;;;;3.30;2.00;;;;;;;17.81;59.85;98902.92;104608;1274;62802;-23
2022/06/17 06:53:59;;;;;;;4.10;2.00;;;;;;;17.77;59.73;98904.44;104574;1274;63062;-23
2022/06/17 06:56:27;;;;;;;2.90;2.20;;;;;;;17.71;58.74;98909.94;104493;1276;75063;-23
2022/06/17 06:58:54;;;;;;;3.50;2.00;;;;;;;17.65;58.60;98914.89;104468;1275;76985;-23
2022/06/17 07:01:22;;;;;;;5.40;2.20;;;;;;;17.63;59.86;98912.14;104417;1277;75427;-25
2022/06/17 07:03:49;;;;;;;3.30;2.20;;;;;;;17.58;58.99;98916.61;104325;1275;62037;-23
2022/06/17 07:06:17;;;;;;;18.40;5.00;;;;;;;17.48;59.81;98921.25;104560;1275;61918;-24
2022/06/17 07:08:48;;;;;;;2.00;1.80;;;;;;;17.43;60.87;98928.19;104589;1276;76583;-24
2022/06/17 07:11:16;;;;;;;2.30;2.00;;;;;;;17.34;61.78;98932.77;104573;1274;76138;-24
2022/06/17 07:13:44;;;;;;;7.20;2.30;;;;;;;17.11;60.17;98932.66;104553;1274;73539;-24
2022/06/17 07:16:11;;;;;;;5.00;2.40;;;;;;;16.89;59.46;98936.16;104560;1275;63112;-24
2022/06/17 07:18:39;;;;;;;31.10;3.30;;;;;;;16.74;60.05;98943.20;104290;1278;61937;-23
2022/06/17 07:21:09;;;;;;;7.00;2.50;;;;;;;16.53;60.27;98943.20;104541;1274;75462;-24
2022/06/17 07:23:38;;;;;;;4.80;2.20;;;;;;;16.30;62.40;98949.65;104448;1274;75472;-23
2022/06/17 07:26:22;;;;;;;6.20;2.50;;;;;;;16.14;63.04;98946.64;104248;1278;75791;-24
2022/06/17 07:28:52;;;;;;;6.10;3.00;;;;;;;15.94;65.61;98951.89;104270;1276;63111;-23
2022/06/17 07:31:21;;;;;;;6.30;2.00;;;;;;;15.83;67.56;98960.36;104466;1275;63285;-24
2022/06/17 07:33:49;;;;;;;3.20;2.20;;;;;;;16.26;66.66;98959.57;104409;1275;76563;-24
2022/06/17 07:41:52;;;;;;;5.50;2.90;;;;;;;16.42;67.78;98969.91;104372;1276;62390;-24
2022/06/17 07:44:19;;;;;;;6.40;3.70;;;;;;;16.31;68.71;98968.80;104446;1276;62614;-24
2022/06/17 07:46:47;;;;;;;5.90;3.10;;;;;;;16.03;68.79;98962.81;104386;1276;75574;-24
2022/06/17 07:49:15;;;;;;;6.30;3.30;;;;;;;15.91;69.91;98965.86;104259;1276;76937;-24
2022/06/17 07:51:42;;;;;;;4.30;2.40;;;;;;;15.84;70.87;98967.23;104563;1276;75461;-23
2022/06/17 07:54:09;;;;;;;5.90;2.90;;;;;;;16.09;68.91;98970.09;104279;1276;63209;-24
2022/06/17 07:56:37;;;;;;;5.90;3.30;;;;;;;16.30;68.33;98973.98;104367;1276;61970;-24
2022/06/17 07:59:04;;;;;;;3.90;3.40;;;;;;;16.22;68.95;98974.48;104569;1276;76567;-24
2022/06/17 08:01:31;;;;;;;5.00;3.20;;;;;;;16.05;69.47;98977.29;104412;1276;75994;-24
2022/06/17 08:03:58;;;;;;;4.10;3.00;;;;;;;15.89;70.75;98981.55;104537;1276;74171;-24
2022/06/17 08:06:26;;;;;;;9.60;4.20;;;;;;;15.62;71.82;98980.28;104537;1276;63039;-24
2022/06/17 08:08:53;;;;;;;3.90;3.40;;;;;;;15.46;72.42;98981.96;104393;1277;61052;-24
2022/06/17 08:11:21;;;;;;;5.00;2.70;;;;;;;15.35;73.08;98984.69;104385;1276;76584;-24
2022/06/17 08:13:49;;;;;;;5.80;3.20;;;;;;;15.79;73.00;98988.94;104519;1276;77299;-24
2022/06/17 08:16:16;;;;;;;7.70;4.10;;;;;;;15.92;71.09;98986.03;104574;1276;75585;-24
2022/06/17 08:18:44;;;;;;;5.80;3.50;;;;;;;15.78;70.99;98986.37;104537;1276;61881;-24
2022/06/17 08:21:11;;;;;;;5.80;3.40;;;;;;;15.64;71.78;98988.48;104250;1276;63085;-24
2022/06/17 08:23:39;;;;;;;15.70;4.50;;;;;;;15.42;72.97;98990.27;104539;1277;76837;-24
2022/06/17 08:26:06;;;;;;;12.50;4.40;;;;;;;15.33;73.52;98991.40;104381;1277;77003;-23
2022/06/17 08:28:33;;;;;;;6.00;2.70;;;;;;;15.13;73.92;98991.21;104545;1277;74430;-24
2022/06/17 08:31:00;;;;;;;11.60;3.70;;;;;;;15.51;73.12;98996.67;104557;1277;61390;-24
2022/06/17 08:33:29;;;;;;;15.70;3.80;;;;;;;15.95;71.18;98997.12;104510;1277;61929;-25
2022/06/17 08:36:18;;;;;;;6.80;4.30;;;;;;;16.00;71.46;98996.55;104582;1276;75431;-24
2022/06/17 08:38:51;;;;;;;5.30;3.60;;;;;;;15.85;72.14;98997.02;104484;1276;77011;-24
2022/06/17 08:41:21;;;;;;;5.50;3.30;;;;;;;15.89;72.61;99000.33;104364;1276;74107;-24
2022/06/17 08:43:55;;;;;;;6.70;4.30;;;;;;;15.87;73.26;99002.46;104587;1276;61960;-24
2022/06/17 08:47:17;;;;;;;7.90;2.80;;;;;;;15.93;74.60;99002.88;104284;1276;62115;-24
2022/06/17 08:50:31;;;;;;;8.10;3.50;;;;;;;16.48;71.87;99004.14;103755;1282;75466;-24
2022/06/17 08:53:14;;;;;;;5.00;3.90;;;;;;;16.45;70.96;99012.15;103270;1289;75264;-24
2022/06/17 08:55:44;;;;;;;6.80;3.90;;;;;;;16.35;72.49;99018.60;103302;1290;75384;-24
2022/06/17 08:58:36;;;;;;;5.90;4.30;;;;;;;16.10;72.41;99018.63;103267;1289;63114;-24
2022/06/17 09:01:11;;;;;;;7.40;4.00;;;;;;;15.76;73.89;99021.25;103353;1288;62040;-24
2022/06/17 09:03:44;;;;;;;5.30;2.90;;;;;;;15.84;75.41;99027.23;103178;1289;74418;-24
2022/06/17 09:06:37;;;;;;;6.20;3.40;;;;;;;16.44;74.90;99025.83;103230;1289;76905;-24
2022/06/17 09:09:22;;;;;;;6.30;3.50;;;;;;;16.76;73.19;99030.61;103265;1288;74369;-24
2022/06/17 09:11:50;;;;;;;6.50;3.90;;;;;;;16.55;72.88;99025.13;103217;1289;63470;-24
2022/06/17 09:14:50;;;;;;;6.80;4.30;;;;;;;16.28;74.30;99024.62;103289;1288;61753;-24
2022/06/17 09:17:20;;;;;;;5.40;4.20;;;;;;;16.04;75.46;99026.42;103237;1288;76686;-23
2022/06/17 09:19:48;;;;;;;3.50;2.40;;;;;;;15.97;76.22;99026.77;103710;1286;75771;-23
2022/06/17 09:22:17;;;;;;;4.20;2.90;;;;;;;16.48;76.12;99029.37;103655;1289;74180;-23
2022/06/17 09:24:46;;;;;;;6.80;3.80;;;;;;;16.72;73.43;99029.79;104343;1276;63093;-23
2022/06/17 09:27:37;;;;;;;5.30;3.30;;;;;;;16.52;74.15;99029.48;104623;1274;61757;-23
2022/06/17 09:30:15;;;;;;;6.10;4.00;;;;;;;16.44;75.22;99029.66;104368;1276;76675;-23
2022/06/17 09:32:46;;;;;;;4.80;3.90;;;;;;;16.25;76.20;99032.88;104550;1275;77144;-23
2022/06/17 09:35:42;;;;;;;6.00;2.80;;;;;;;16.04;76.95;99031.35;104593;1276;75340;-23
2022/06/17 09:38:13;;;;;;;5.40;2.90;;;;;;;16.63;76.29;99035.19;104371;1275;63419;-24
2022/06/17 09:40:59;;;;;;;3.70;2.90;;;;;;;16.83;73.93;99031.76;104327;1276;61713;-23
2022/06/17 09:43:45;;;;;;;5.00;3.20;;;;;;;16.79;73.96;99032.91;104290;1276;76376;-23
2022/06/17 09:46:21;;;;;;;4.40;3.10;;;;;;;16.46;74.28;99034.09;104539;1276;76491;-23
2022/06/17 09:48:52;;;;;;;6.00;3.40;;;;;;;16.32;75.40;99033.10;104408;1277;74428;-23
2022/06/17 09:51:24;;;;;;;2.90;2.20;;;;;;;16.11;76.03;99027.16;104377;1276;64630;-23
2022/06/17 09:53:57;;;;;;;3.60;2.70;;;;;;;16.47;74.89;99024.44;104365;1276;61998;-23
2022/06/17 09:56:36;;;;;;;5.10;3.30;;;;;;;16.80;73.06;99025.95;104612;1273;75550;-23
2022/06/17 09:59:17;;;;;;;2.80;2.50;;;;;;;16.73;72.70;99016.52;104643;1274;75078;-24
2022/06/17 10:01:45;;;;;;;4.20;3.30;;;;;;;16.44;73.27;99009.86;104681;1274;75467;-23
2022/06/17 10:04:12;;;;;;;3.00;2.70;;;;;;;16.26;74.88;99009.27;104610;1274;62003;-23
2022/06/17 10:07:06;;;;;;;4.30;3.40;;;;;;;16.22;76.29;99013.59;104741;1274;62929;-23
2022/06/17 10:09:43;;;;;;;2.70;2.30;;;;;;;16.22;77.59;99012.34;104632;1273;74213;-23
2022/06/17 10:12:16;;;;;;;4.20;2.60;;;;;;;16.77;75.27;99013.86;104511;1273;76760;-23
2022/06/17 10:14:53;;;;;;;7.00;3.10;;;;;;;17.01;73.57;99006.57;104626;1272;75431;-23
2022/06/17 10:20:21;;;;;;;4.80;3.20;;;;;;;16.39;74.74;99004.54;104747;1274;63295;-23
2022/06/17 10:22:58;;;;;;;3.50;3.20;;;;;;;15.98;76.56;99001.36;104946;1273;75688;-23
2022/06/17 10:25:29;;;;;;;4.00;3.10;;;;;;;15.81;77.70;99003.28;104413;1273;76955;-23
2022/06/17 10:28:02;;;;;;;4.70;2.90;;;;;;;15.80;78.74;99001.10;104524;1273;73653;-23
2022/06/17 10:30:34;;;;;;;4.60;2.50;;;;;;;16.32;76.76;98995.17;104645;1274;61985;-23
2022/06/17 10:33:02;;;;;;;4.80;3.00;;;;;;;16.47;75.97;98984.98;104634;1274;62010;-23
2022/06/17 10:35:30;;;;;;;4.60;3.20;;;;;;;16.40;76.40;98983.02;104693;1274;74477;-23
2022/06/17 10:37:59;;;;;;;3.70;3.30;;;;;;;16.45;77.35;98985.55;104621;1274;76982;-23
2022/06/17 10:40:29;;;;;;;5.20;3.70;;;;;;;16.44;77.88;98984.63;104656;1271;75281;-23
2022/06/17 10:42:57;;;;;;;2.80;2.40;;;;;;;16.41;78.52;98984.92;104690;1271;64738;-23
2022/06/17 10:45:25;;;;;;;4.30;2.80;;;;;;;16.75;76.49;98980.11;104787;1271;61553;-23
2022/06/17 10:47:52;;;;;;;5.30;2.80;;;;;;;17.15;74.63;98978.42;104747;1271;75408;-23
2022/06/17 10:50:22;;;;;;;3.50;3.00;;;;;;;17.20;74.20;98978.26;104740;1271;75926;-23
2022/06/17 10:53:08;;;;;;;4.20;3.20;;;;;;;17.18;75.10;98981.77;104907;1271;75315;-23
2022/06/17 10:55:41;;;;;;;3.80;3.00;;;;;;;16.89;74.87;98981.36;104885;1271;63102;-23
2022/06/17 10:58:23;;;;;;;3.20;2.80;;;;;;;16.61;75.40;98983.47;104548;1271;62786;-23
2022/06/17 11:00:57;;;;;;;2.30;1.90;;;;;;;16.45;75.95;98985.39;104624;1271;76555;-23
2022/06/17 11:03:33;;;;;;;3.00;2.40;;;;;;;16.89;74.41;98985.43;104621;1273;77040;-23
2022/06/17 11:06:17;;;;;;;6.30;2.60;;;;;;;16.94;72.89;98980.30;104610;1271;74184;-23
2022/06/17 11:09:01;;;;;;;2.80;2.50;;;;;;;16.93;74.31;98983.06;104740;1271;63336;-23
2022/06/17 11:14:29;;;;;;;5.10;3.00;;;;;;;16.63;75.41;98989.29;104609;1271;77339;-24
2022/06/17 11:16:57;;;;;;;2.50;1.70;;;;;;;16.55;76.97;98988.14;104729;1273;77029;-23
2022/06/17 11:19:26;;;;;;;3.60;1.70;;;;;;;17.03;75.92;98982.50;104768;1271;73582;-24
2022/06/17 11:21:58;;;;;;;3.50;2.20;;;;;;;17.42;73.29;98970.69;104716;1271;62838;-23
2022/06/17 11:24:38;;;;;;;3.30;2.60;;;;;;;17.30;73.29;98967.00;104694;1272;62791;-24
2022/06/17 11:27:36;;;;;;;5.50;2.70;;;;;;;17.06;72.77;98964.40;104784;1273;75720;-24
2022/06/17 11:30:19;;;;;;;3.90;2.70;;;;;;;16.92;73.48;98968.92;104817;1271;76095;-24
2022/06/17 11:32:47;;;;;;;2.50;2.20;;;;;;;16.68;74.53;98980.98;104739;1271;74580;-24
2022/06/17 11:35:24;;;;;;;3.60;1.70;;;;;;;16.65;74.64;98988.49;104745;1271;63619;-24
2022/06/17 11:37:52;;;;;;;1.90;1.60;;;;;;;17.07;72.53;98998.33;104646;1271;61840;-24
2022/06/17 11:40:22;;;;;;;2.50;2.10;;;;;;;17.38;70.95;98995.13;104950;1271;74501;-24
2022/06/17 11:42:51;;;;;;;2.40;2.10;;;;;;;17.37;71.36;99000.75;104785;1270;77574;-24
2022/06/17 11:45:22;;;;;;;4.10;2.30;;;;;;;17.05;71.38;99009.65;105069;1271;75179;-24
2022/06/17 11:47:52;;;;;;;2.90;2.00;;;;;;;16.78;72.05;99014.27;104899;1270;63345;-23
2022/06/17 11:50:23;;;;;;;5.30;2.60;;;;;;;16.38;74.96;99017.77;104660;1270;63058;-23
2022/06/17 11:52:51;;;;;;;3.80;2.70;;;;;;;16.11;75.11;99024.88;105023;1270;76642;-24
2022/06/17 11:55:26;;;;;;;2.90;2.10;;;;;;;15.86;76.13;99027.25;104839;1270;77075;-24
2022/06/17 11:58:16;;;;;;;2.70;2.00;;;;;;;16.35;75.73;99025.48;104923;1270;74277;-24
2022/06/17 12:00:49;;;;;;;2.10;1.90;;;;;;;16.53;75.85;99020.73;104437;1273;63042;-24
2022/06/17 12:03:20;;;;;;;3.70;2.00;;;;;;;16.44;76.36;99011.58;104664;1271;61925;-23
2022/06/17 12:05:58;;;;;;;3.80;2.60;;;;;;;16.22;77.77;99004.73;104729;1270;76897;-22
2022/06/17 12:08:33;;;;;;;3.60;2.30;;;;;;;15.98;78.70;98997.81;104651;1273;76954;-22